sensor_id;sensor_type;location;lat;lon;timestamp;P1;durP1;ratioP1;P2;durP2;ratioP2
72117;SDS011;59992;47.490;8.736;2022-07-29T00:01:10;2.50;;;1.50;;
72117;SDS011;59992;47.490;8.736;2022-07-29T00:04:03;3.30;;;1.70;;
72117;SDS011;59992;47.490;8.736;2022-07-29T00:06:52;2.20;;;1.60;;
72117;SDS011;59992;47.490;8.736;2022-07-29T00:09:41;3.30;;;1.90;;
72117;SDS011;59992;47.490;8.736;2022-07-29T00:12:29;2.30;;;1.40;;
72117;SDS011;59992;47.490;8.736;2022-07-29T00:15:18;5.30;;;1.80;;
72117;SDS011;59992;47.490;8.736;2022-07-29T00:18:07;2.00;;;1.30;;
72117;SDS011;59992;47.490;8.736;2022-07-29T00:20:55;2.30;;;1.30;;
72117;SDS011;59992;47.490;8.736;2022-07-29T00:23:44;5.10;;;1.60;;
72117;SDS011;59992;47.490;8.736;2022-07-29T00:26:33;2.70;;;1.50;;
72117;SDS011;59992;47.490;8.736;2022-07-29T00:29:21;2.10;;;1.50;;
72117;SDS011;59992;47.490;8.736;2022-07-29T00:32:10;2.30;;;1.50;;
72117;SDS011;59992;47.490;8.736;2022-07-29T00:34:59;2.40;;;1.60;;
72117;SDS011;59992;47.490;8.736;2022-07-29T00:38:05;2.30;;;1.60;;
72117;SDS011;59992;47.490;8.736;2022-07-29T00:40:53;3.70;;;1.60;;
72117;SDS011;59992;47.490;8.736;2022-07-29T00:43:42;3.20;;;1.60;;
72117;SDS011;59992;47.490;8.736;2022-07-29T00:46:30;2.80;;;1.70;;
72117;SDS011;59992;47.490;8.736;2022-07-29T00:49:19;2.20;;;1.50;;
72117;SDS011;59992;47.490;8.736;2022-07-29T00:52:08;2.40;;;1.60;;
72117;SDS011;59992;47.490;8.736;2022-07-29T00:54:58;2.30;;;1.60;;
72117;SDS011;59992;47.490;8.736;2022-07-29T00:57:46;2.70;;;1.60;;
72117;SDS011;59992;47.490;8.736;2022-07-29T01:00:35;2.70;;;1.50;;
72117;SDS011;59992;47.490;8.736;2022-07-29T01:03:24;2.60;;;1.60;;
72117;SDS011;59992;47.490;8.736;2022-07-29T01:06:12;4.20;;;1.60;;
72117;SDS011;59992;47.490;8.736;2022-07-29T01:09:02;2.40;;;1.70;;
72117;SDS011;59992;47.490;8.736;2022-07-29T01:11:50;2.00;;;1.40;;
72117;SDS011;59992;47.490;8.736;2022-07-29T01:14:40;5.00;;;2.00;;
72117;SDS011;59992;47.490;8.736;2022-07-29T01:17:31;2.10;;;1.50;;
72117;SDS011;59992;47.490;8.736;2022-07-29T01:20:25;3.80;;;1.90;;
72117;SDS011;59992;47.490;8.736;2022-07-29T01:23:42;3.10;;;1.20;;
72117;SDS011;59992;47.490;8.736;2022-07-29T01:26:45;3.70;;;1.60;;
72117;SDS011;59992;47.490;8.736;2022-07-29T01:29:36;1.70;;;1.50;;
72117;SDS011;59992;47.490;8.736;2022-07-29T01:32:31;2.70;;;1.80;;
72117;SDS011;59992;47.490;8.736;2022-07-29T01:35:24;2.80;;;1.80;;
72117;SDS011;59992;47.490;8.736;2022-07-29T01:38:18;2.30;;;1.60;;
72117;SDS011;59992;47.490;8.736;2022-07-29T01:41:10;2.60;;;1.40;;
72117;SDS011;59992;47.490;8.736;2022-07-29T01:44:05;3.60;;;1.30;;
72117;SDS011;59992;47.490;8.736;2022-07-29T01:47:02;2.80;;;1.30;;
72117;SDS011;59992;47.490;8.736;2022-07-29T01:49:58;2.30;;;1.60;;
72117;SDS011;59992;47.490;8.736;2022-07-29T01:52:49;4.50;;;1.50;;
72117;SDS011;59992;47.490;8.736;2022-07-29T01:55:44;2.00;;;1.40;;
72117;SDS011;59992;47.490;8.736;2022-07-29T01:58:33;2.20;;;1.60;;
72117;SDS011;59992;47.490;8.736;2022-07-29T02:01:26;4.10;;;1.80;;
72117;SDS011;59992;47.490;8.736;2022-07-29T02:04:17;3.60;;;1.50;;
72117;SDS011;59992;47.490;8.736;2022-07-29T02:07:07;3.50;;;1.50;;
72117;SDS011;59992;47.490;8.736;2022-07-29T02:10:01;4.10;;;1.60;;
72117;SDS011;59992;47.490;8.736;2022-07-29T02:12:52;2.40;;;1.40;;
72117;SDS011;59992;47.490;8.736;2022-07-29T02:15:44;3.20;;;1.20;;
72117;SDS011;59992;47.490;8.736;2022-07-29T02:18:33;4.00;;;1.80;;
72117;SDS011;59992;47.490;8.736;2022-07-29T02:21:23;2.40;;;1.30;;
72117;SDS011;59992;47.490;8.736;2022-07-29T02:24:14;2.30;;;1.50;;
72117;SDS011;59992;47.490;8.736;2022-07-29T02:27:06;1.90;;;1.40;;
72117;SDS011;59992;47.490;8.736;2022-07-29T02:29:56;3.70;;;1.40;;
72117;SDS011;59992;47.490;8.736;2022-07-29T02:32:48;2.80;;;1.40;;
72117;SDS011;59992;47.490;8.736;2022-07-29T02:35:38;2.10;;;1.40;;
72117;SDS011;59992;47.490;8.736;2022-07-29T02:38:29;3.10;;;1.30;;
72117;SDS011;59992;47.490;8.736;2022-07-29T02:41:42;2.50;;;1.60;;
72117;SDS011;59992;47.490;8.736;2022-07-29T02:44:33;1.70;;;1.30;;
72117;SDS011;59992;47.490;8.736;2022-07-29T02:47:23;4.10;;;1.30;;
72117;SDS011;59992;47.490;8.736;2022-07-29T02:50:23;3.30;;;1.70;;
72117;SDS011;59992;47.490;8.736;2022-07-29T02:53:20;2.80;;;1.60;;
72117;SDS011;59992;47.490;8.736;2022-07-29T02:56:13;3.10;;;1.40;;
72117;SDS011;59992;47.490;8.736;2022-07-29T02:59:06;3.40;;;1.50;;
72117;SDS011;59992;47.490;8.736;2022-07-29T03:01:57;2.30;;;1.40;;
72117;SDS011;59992;47.490;8.736;2022-07-29T03:04:47;1.90;;;1.30;;
72117;SDS011;59992;47.490;8.736;2022-07-29T03:07:38;3.60;;;1.60;;
72117;SDS011;59992;47.490;8.736;2022-07-29T03:10:30;3.70;;;1.40;;
72117;SDS011;59992;47.490;8.736;2022-07-29T03:13:20;2.40;;;1.60;;
72117;SDS011;59992;47.490;8.736;2022-07-29T03:16:10;2.50;;;1.40;;
72117;SDS011;59992;47.490;8.736;2022-07-29T03:19:00;2.30;;;1.20;;
72117;SDS011;59992;47.490;8.736;2022-07-29T03:21:49;2.30;;;1.40;;
72117;SDS011;59992;47.490;8.736;2022-07-29T03:24:37;2.50;;;1.40;;
72117;SDS011;59992;47.490;8.736;2022-07-29T03:27:26;2.70;;;1.40;;
72117;SDS011;59992;47.490;8.736;2022-07-29T03:30:15;2.20;;;1.40;;
72117;SDS011;59992;47.490;8.736;2022-07-29T03:33:04;2.80;;;1.40;;
72117;SDS011;59992;47.490;8.736;2022-07-29T03:35:52;2.10;;;1.50;;
72117;SDS011;59992;47.490;8.736;2022-07-29T03:38:40;2.10;;;1.40;;
72117;SDS011;59992;47.490;8.736;2022-07-29T03:41:32;2.10;;;1.30;;
72117;SDS011;59992;47.490;8.736;2022-07-29T03:44:23;2.00;;;1.50;;
72117;SDS011;59992;47.490;8.736;2022-07-29T03:47:13;3.90;;;1.70;;
72117;SDS011;59992;47.490;8.736;2022-07-29T03:50:06;2.20;;;1.30;;
72117;SDS011;59992;47.490;8.736;2022-07-29T03:52:56;1.80;;;1.10;;
72117;SDS011;59992;47.490;8.736;2022-07-29T03:55:47;5.30;;;1.60;;
72117;SDS011;59992;47.490;8.736;2022-07-29T03:58:39;4.10;;;1.40;;
72117;SDS011;59992;47.490;8.736;2022-07-29T04:01:28;4.20;;;1.30;;
72117;SDS011;59992;47.490;8.736;2022-07-29T04:04:20;3.40;;;1.30;;
72117;SDS011;59992;47.490;8.736;2022-07-29T04:07:12;3.50;;;1.50;;
72117;SDS011;59992;47.490;8.736;2022-07-29T04:10:01;3.60;;;1.30;;
72117;SDS011;59992;47.490;8.736;2022-07-29T04:12:49;2.80;;;1.70;;
72117;SDS011;59992;47.490;8.736;2022-07-29T04:15:39;4.50;;;1.70;;
72117;SDS011;59992;47.490;8.736;2022-07-29T04:18:28;2.80;;;1.50;;
72117;SDS011;59992;47.490;8.736;2022-07-29T04:21:17;3.30;;;1.60;;
72117;SDS011;59992;47.490;8.736;2022-07-29T04:24:06;2.90;;;1.40;;
72117;SDS011;59992;47.490;8.736;2022-07-29T04:26:55;3.20;;;1.70;;
72117;SDS011;59992;47.490;8.736;2022-07-29T04:29:44;4.70;;;1.30;;
72117;SDS011;59992;47.490;8.736;2022-07-29T04:32:32;2.30;;;1.60;;
72117;SDS011;59992;47.490;8.736;2022-07-29T04:35:21;2.20;;;1.60;;
72117;SDS011;59992;47.490;8.736;2022-07-29T04:38:09;4.00;;;1.60;;
72117;SDS011;59992;47.490;8.736;2022-07-29T04:40:58;3.60;;;1.40;;
72117;SDS011;59992;47.490;8.736;2022-07-29T04:43:46;2.90;;;1.70;;
72117;SDS011;59992;47.490;8.736;2022-07-29T04:46:35;3.00;;;1.40;;
72117;SDS011;59992;47.490;8.736;2022-07-29T04:49:23;2.50;;;1.40;;
72117;SDS011;59992;47.490;8.736;2022-07-29T04:52:12;2.90;;;1.50;;
72117;SDS011;59992;47.490;8.736;2022-07-29T04:55:00;2.60;;;1.40;;
72117;SDS011;59992;47.490;8.736;2022-07-29T04:57:49;2.00;;;1.30;;
72117;SDS011;59992;47.490;8.736;2022-07-29T05:00:38;6.20;;;1.50;;
72117;SDS011;59992;47.490;8.736;2022-07-29T05:03:27;4.50;;;1.30;;
72117;SDS011;59992;47.490;8.736;2022-07-29T05:06:15;2.70;;;1.30;;
72117;SDS011;59992;47.490;8.736;2022-07-29T05:09:04;1.80;;;1.30;;
72117;SDS011;59992;47.490;8.736;2022-07-29T05:11:52;2.60;;;1.50;;
72117;SDS011;59992;47.490;8.736;2022-07-29T05:14:41;2.50;;;1.50;;
72117;SDS011;59992;47.490;8.736;2022-07-29T05:17:29;4.10;;;1.30;;
72117;SDS011;59992;47.490;8.736;2022-07-29T05:20:18;2.70;;;1.20;;
72117;SDS011;59992;47.490;8.736;2022-07-29T05:23:13;3.80;;;1.40;;
72117;SDS011;59992;47.490;8.736;2022-07-29T05:26:03;1.90;;;1.10;;
72117;SDS011;59992;47.490;8.736;2022-07-29T05:28:52;1.80;;;1.20;;
72117;SDS011;59992;47.490;8.736;2022-07-29T05:31:41;1.80;;;1.10;;
72117;SDS011;59992;47.490;8.736;2022-07-29T05:34:30;2.20;;;1.10;;
72117;SDS011;59992;47.490;8.736;2022-07-29T05:37:19;5.30;;;1.10;;
72117;SDS011;59992;47.490;8.736;2022-07-29T05:40:08;3.20;;;1.10;;
72117;SDS011;59992;47.490;8.736;2022-07-29T05:42:57;1.40;;;0.90;;
72117;SDS011;59992;47.490;8.736;2022-07-29T05:45:45;2.80;;;1.70;;
72117;SDS011;59992;47.490;8.736;2022-07-29T05:48:34;2.60;;;1.30;;
72117;SDS011;59992;47.490;8.736;2022-07-29T05:51:23;2.00;;;1.20;;
72117;SDS011;59992;47.490;8.736;2022-07-29T05:54:11;1.60;;;1.20;;
72117;SDS011;59992;47.490;8.736;2022-07-29T05:57:00;2.70;;;1.20;;
72117;SDS011;59992;47.490;8.736;2022-07-29T05:59:49;2.60;;;1.20;;
72117;SDS011;59992;47.490;8.736;2022-07-29T06:02:38;1.50;;;0.90;;
72117;SDS011;59992;47.490;8.736;2022-07-29T06:05:26;4.70;;;1.40;;
72117;SDS011;59992;47.490;8.736;2022-07-29T06:08:15;1.90;;;1.30;;
72117;SDS011;59992;47.490;8.736;2022-07-29T06:11:04;2.10;;;1.30;;
72117;SDS011;59992;47.490;8.736;2022-07-29T06:13:53;2.20;;;1.10;;
72117;SDS011;59992;47.490;8.736;2022-07-29T06:16:41;3.30;;;1.80;;
72117;SDS011;59992;47.490;8.736;2022-07-29T06:19:30;3.20;;;1.70;;
72117;SDS011;59992;47.490;8.736;2022-07-29T06:22:18;3.50;;;2.10;;
72117;SDS011;59992;47.490;8.736;2022-07-29T06:25:07;3.00;;;1.90;;
72117;SDS011;59992;47.490;8.736;2022-07-29T06:27:56;3.70;;;2.00;;
72117;SDS011;59992;47.490;8.736;2022-07-29T06:30:44;3.80;;;1.80;;
72117;SDS011;59992;47.490;8.736;2022-07-29T06:33:32;3.10;;;1.70;;
72117;SDS011;59992;47.490;8.736;2022-07-29T06:36:21;3.00;;;1.20;;
72117;SDS011;59992;47.490;8.736;2022-07-29T06:39:09;5.40;;;1.70;;
72117;SDS011;59992;47.490;8.736;2022-07-29T06:41:58;4.50;;;2.00;;
72117;SDS011;59992;47.490;8.736;2022-07-29T06:44:47;2.40;;;1.60;;
72117;SDS011;59992;47.490;8.736;2022-07-29T06:47:35;2.30;;;1.50;;
72117;SDS011;59992;47.490;8.736;2022-07-29T06:50:23;3.10;;;1.40;;
72117;SDS011;59992;47.490;8.736;2022-07-29T06:53:13;4.10;;;1.30;;
72117;SDS011;59992;47.490;8.736;2022-07-29T06:56:01;4.00;;;1.40;;
72117;SDS011;59992;47.490;8.736;2022-07-29T06:58:55;1.50;;;1.10;;
72117;SDS011;59992;47.490;8.736;2022-07-29T07:01:44;3.20;;;1.20;;
72117;SDS011;59992;47.490;8.736;2022-07-29T07:04:33;1.60;;;1.10;;
72117;SDS011;59992;47.490;8.736;2022-07-29T07:07:21;2.40;;;1.40;;
72117;SDS011;59992;47.490;8.736;2022-07-29T07:10:10;2.60;;;1.10;;
72117;SDS011;59992;47.490;8.736;2022-07-29T07:13:00;1.70;;;1.00;;
72117;SDS011;59992;47.490;8.736;2022-07-29T07:15:49;3.40;;;1.30;;
72117;SDS011;59992;47.490;8.736;2022-07-29T07:18:39;8.10;;;1.30;;
72117;SDS011;59992;47.490;8.736;2022-07-29T07:21:28;2.00;;;1.00;;
72117;SDS011;59992;47.490;8.736;2022-07-29T07:24:16;2.60;;;1.30;;
72117;SDS011;59992;47.490;8.736;2022-07-29T07:27:05;2.60;;;1.20;;
72117;SDS011;59992;47.490;8.736;2022-07-29T07:29:53;3.60;;;1.10;;
72117;SDS011;59992;47.490;8.736;2022-07-29T07:32:44;4.80;;;1.10;;
72117;SDS011;59992;47.490;8.736;2022-07-29T07:35:33;1.80;;;1.30;;
72117;SDS011;59992;47.490;8.736;2022-07-29T07:38:21;3.30;;;1.30;;
72117;SDS011;59992;47.490;8.736;2022-07-29T07:41:10;5.20;;;1.50;;
72117;SDS011;59992;47.490;8.736;2022-07-29T07:43:58;3.80;;;1.40;;
72117;SDS011;59992;47.490;8.736;2022-07-29T07:46:47;2.40;;;1.10;;
72117;SDS011;59992;47.490;8.736;2022-07-29T07:49:35;7.60;;;1.10;;
72117;SDS011;59992;47.490;8.736;2022-07-29T07:52:24;2.40;;;1.20;;
72117;SDS011;59992;47.490;8.736;2022-07-29T07:55:13;2.30;;;1.30;;
72117;SDS011;59992;47.490;8.736;2022-07-29T07:58:01;5.00;;;1.40;;
72117;SDS011;59992;47.490;8.736;2022-07-29T08:00:50;3.30;;;1.40;;
72117;SDS011;59992;47.490;8.736;2022-07-29T08:03:39;2.80;;;1.60;;
72117;SDS011;59992;47.490;8.736;2022-07-29T08:06:28;2.90;;;1.60;;
72117;SDS011;59992;47.490;8.736;2022-07-29T08:09:16;5.40;;;1.50;;
72117;SDS011;59992;47.490;8.736;2022-07-29T08:12:05;2.40;;;1.40;;
72117;SDS011;59992;47.490;8.736;2022-07-29T08:14:54;2.80;;;1.60;;
72117;SDS011;59992;47.490;8.736;2022-07-29T08:17:43;3.20;;;1.90;;
72117;SDS011;59992;47.490;8.736;2022-07-29T08:20:32;3.00;;;1.50;;
72117;SDS011;59992;47.490;8.736;2022-07-29T08:23:22;6.20;;;2.00;;
72117;SDS011;59992;47.490;8.736;2022-07-29T08:26:11;6.50;;;2.00;;
72117;SDS011;59992;47.490;8.736;2022-07-29T08:29:00;3.60;;;1.60;;
72117;SDS011;59992;47.490;8.736;2022-07-29T08:31:49;4.30;;;1.50;;
72117;SDS011;59992;47.490;8.736;2022-07-29T08:34:38;1.80;;;1.40;;
72117;SDS011;59992;47.490;8.736;2022-07-29T08:37:26;2.30;;;1.70;;
72117;SDS011;59992;47.490;8.736;2022-07-29T08:40:15;3.60;;;1.80;;
72117;SDS011;59992;47.490;8.736;2022-07-29T08:43:06;5.60;;;2.00;;
72117;SDS011;59992;47.490;8.736;2022-07-29T08:45:55;5.10;;;2.00;;
72117;SDS011;59992;47.490;8.736;2022-07-29T08:48:44;2.90;;;1.80;;
72117;SDS011;59992;47.490;8.736;2022-07-29T08:51:33;3.50;;;1.90;;
72117;SDS011;59992;47.490;8.736;2022-07-29T08:54:23;2.60;;;1.70;;
72117;SDS011;59992;47.490;8.736;2022-07-29T08:57:13;3.40;;;2.00;;
72117;SDS011;59992;47.490;8.736;2022-07-29T09:00:04;4.50;;;2.00;;
72117;SDS011;59992;47.490;8.736;2022-07-29T09:02:56;3.70;;;1.70;;
72117;SDS011;59992;47.490;8.736;2022-07-29T09:05:46;2.30;;;1.60;;
72117;SDS011;59992;47.490;8.736;2022-07-29T09:08:35;4.40;;;2.00;;
72117;SDS011;59992;47.490;8.736;2022-07-29T09:11:23;3.30;;;1.60;;
72117;SDS011;59992;47.490;8.736;2022-07-29T09:14:12;3.40;;;1.80;;
72117;SDS011;59992;47.490;8.736;2022-07-29T09:17:01;3.00;;;1.90;;
72117;SDS011;59992;47.490;8.736;2022-07-29T09:19:49;2.80;;;1.90;;
72117;SDS011;59992;47.490;8.736;2022-07-29T09:22:39;5.30;;;1.60;;
72117;SDS011;59992;47.490;8.736;2022-07-29T09:25:34;2.90;;;1.80;;
72117;SDS011;59992;47.490;8.736;2022-07-29T09:28:23;3.10;;;1.90;;
72117;SDS011;59992;47.490;8.736;2022-07-29T09:31:11;4.00;;;1.90;;
72117;SDS011;59992;47.490;8.736;2022-07-29T09:34:00;3.80;;;2.10;;
72117;SDS011;59992;47.490;8.736;2022-07-29T09:36:49;2.70;;;1.60;;
72117;SDS011;59992;47.490;8.736;2022-07-29T09:39:39;5.90;;;1.80;;
72117;SDS011;59992;47.490;8.736;2022-07-29T09:42:32;2.80;;;1.50;;
72117;SDS011;59992;47.490;8.736;2022-07-29T09:45:28;4.40;;;1.70;;
72117;SDS011;59992;47.490;8.736;2022-07-29T09:48:18;3.70;;;1.70;;
72117;SDS011;59992;47.490;8.736;2022-07-29T09:51:16;3.40;;;1.80;;
72117;SDS011;59992;47.490;8.736;2022-07-29T09:57:22;1.80;;;1.40;;
72117;SDS011;59992;47.490;8.736;2022-07-29T10:00:13;2.50;;;1.70;;
72117;SDS011;59992;47.490;8.736;2022-07-29T10:03:04;3.90;;;1.80;;
72117;SDS011;59992;47.490;8.736;2022-07-29T10:06:07;3.10;;;2.00;;
72117;SDS011;59992;47.490;8.736;2022-07-29T10:09:07;3.30;;;1.80;;
72117;SDS011;59992;47.490;8.736;2022-07-29T10:12:06;3.20;;;2.00;;
72117;SDS011;59992;47.490;8.736;2022-07-29T10:14:57;3.00;;;1.60;;
72117;SDS011;59992;47.490;8.736;2022-07-29T10:17:49;3.10;;;1.70;;
72117;SDS011;59992;47.490;8.736;2022-07-29T10:20:38;3.50;;;2.00;;
72117;SDS011;59992;47.490;8.736;2022-07-29T10:23:29;3.60;;;1.90;;
72117;SDS011;59992;47.490;8.736;2022-07-29T10:26:19;2.90;;;1.90;;
72117;SDS011;59992;47.490;8.736;2022-07-29T10:29:08;4.70;;;2.60;;
72117;SDS011;59992;47.490;8.736;2022-07-29T10:32:00;2.50;;;1.80;;
72117;SDS011;59992;47.490;8.736;2022-07-29T10:35:05;9.70;;;3.80;;
72117;SDS011;59992;47.490;8.736;2022-07-29T10:38:22;3.20;;;2.10;;
72117;SDS011;59992;47.490;8.736;2022-07-29T10:41:37;2.80;;;1.90;;
72117;SDS011;59992;47.490;8.736;2022-07-29T10:44:40;2.60;;;1.60;;
72117;SDS011;59992;47.490;8.736;2022-07-29T10:47:30;2.30;;;1.70;;
72117;SDS011;59992;47.490;8.736;2022-07-29T10:50:19;2.60;;;1.70;;
72117;SDS011;59992;47.490;8.736;2022-07-29T10:53:07;3.80;;;1.80;;
72117;SDS011;59992;47.490;8.736;2022-07-29T10:55:56;4.40;;;2.10;;
72117;SDS011;59992;47.490;8.736;2022-07-29T10:58:44;4.30;;;2.00;;
72117;SDS011;59992;47.490;8.736;2022-07-29T11:02:41;3.50;;;2.40;;
72117;SDS011;59992;47.490;8.736;2022-07-29T11:05:51;4.40;;;2.20;;
72117;SDS011;59992;47.490;8.736;2022-07-29T11:08:41;3.00;;;1.90;;
72117;SDS011;59992;47.490;8.736;2022-07-29T11:11:30;3.30;;;2.10;;
72117;SDS011;59992;47.490;8.736;2022-07-29T11:14:21;2.90;;;1.90;;
72117;SDS011;59992;47.490;8.736;2022-07-29T11:20:56;4.10;;;2.20;;
72117;SDS011;59992;47.490;8.736;2022-07-29T11:23:44;3.70;;;2.30;;
72117;SDS011;59992;47.490;8.736;2022-07-29T11:26:34;4.20;;;1.90;;
72117;SDS011;59992;47.490;8.736;2022-07-29T11:29:23;4.40;;;2.00;;
72117;SDS011;59992;47.490;8.736;2022-07-29T11:32:13;3.00;;;2.00;;
72117;SDS011;59992;47.490;8.736;2022-07-29T11:35:14;4.50;;;2.70;;
72117;SDS011;59992;47.490;8.736;2022-07-29T11:41:21;5.80;;;2.20;;
72117;SDS011;59992;47.490;8.736;2022-07-29T11:44:11;2.60;;;2.10;;
72117;SDS011;59992;47.490;8.736;2022-07-29T11:46:59;2.70;;;2.30;;
72117;SDS011;59992;47.490;8.736;2022-07-29T11:49:48;3.50;;;2.20;;
72117;SDS011;59992;47.490;8.736;2022-07-29T11:52:39;4.10;;;2.30;;
72117;SDS011;59992;47.490;8.736;2022-07-29T11:55:32;3.00;;;2.10;;
72117;SDS011;59992;47.490;8.736;2022-07-29T11:58:25;4.40;;;2.20;;
72117;SDS011;59992;47.490;8.736;2022-07-29T12:01:14;3.00;;;2.20;;
72117;SDS011;59992;47.490;8.736;2022-07-29T12:04:05;3.60;;;2.30;;
72117;SDS011;59992;47.490;8.736;2022-07-29T12:06:55;2.80;;;1.90;;
72117;SDS011;59992;47.490;8.736;2022-07-29T12:09:49;3.80;;;2.40;;
72117;SDS011;59992;47.490;8.736;2022-07-29T12:12:39;4.10;;;2.40;;
72117;SDS011;59992;47.490;8.736;2022-07-29T12:15:27;3.80;;;2.20;;
72117;SDS011;59992;47.490;8.736;2022-07-29T12:18:17;4.80;;;2.10;;
72117;SDS011;59992;47.490;8.736;2022-07-29T12:21:07;4.40;;;2.40;;
72117;SDS011;59992;47.490;8.736;2022-07-29T12:23:56;3.20;;;1.90;;
72117;SDS011;59992;47.490;8.736;2022-07-29T12:26:50;3.00;;;1.70;;
72117;SDS011;59992;47.490;8.736;2022-07-29T12:29:40;3.60;;;2.00;;
72117;SDS011;59992;47.490;8.736;2022-07-29T12:32:32;2.30;;;1.70;;
72117;SDS011;59992;47.490;8.736;2022-07-29T12:35:23;4.80;;;1.90;;
72117;SDS011;59992;47.490;8.736;2022-07-29T12:38:11;3.30;;;2.00;;
72117;SDS011;59992;47.490;8.736;2022-07-29T12:41:02;6.30;;;2.10;;
72117;SDS011;59992;47.490;8.736;2022-07-29T12:43:54;4.30;;;2.10;;
72117;SDS011;59992;47.490;8.736;2022-07-29T12:46:43;5.10;;;2.20;;
72117;SDS011;59992;47.490;8.736;2022-07-29T12:49:33;4.70;;;1.90;;
72117;SDS011;59992;47.490;8.736;2022-07-29T12:52:25;2.90;;;1.90;;
72117;SDS011;59992;47.490;8.736;2022-07-29T12:55:31;5.60;;;2.30;;
72117;SDS011;59992;47.490;8.736;2022-07-29T12:58:26;4.90;;;2.30;;
72117;SDS011;59992;47.490;8.736;2022-07-29T13:01:16;3.50;;;1.90;;
72117;SDS011;59992;47.490;8.736;2022-07-29T13:04:06;4.00;;;1.70;;
72117;SDS011;59992;47.490;8.736;2022-07-29T13:06:58;4.70;;;2.00;;
72117;SDS011;59992;47.490;8.736;2022-07-29T13:09:48;4.90;;;2.20;;
72117;SDS011;59992;47.490;8.736;2022-07-29T13:12:37;3.30;;;2.10;;
72117;SDS011;59992;47.490;8.736;2022-07-29T13:15:25;4.30;;;2.40;;
72117;SDS011;59992;47.490;8.736;2022-07-29T13:18:26;3.30;;;1.90;;
72117;SDS011;59992;47.490;8.736;2022-07-29T13:21:16;5.10;;;1.90;;
72117;SDS011;59992;47.490;8.736;2022-07-29T13:24:05;5.00;;;1.90;;
72117;SDS011;59992;47.490;8.736;2022-07-29T13:26:54;2.90;;;1.80;;
72117;SDS011;59992;47.490;8.736;2022-07-29T13:29:43;6.70;;;2.60;;
72117;SDS011;59992;47.490;8.736;2022-07-29T13:32:32;4.30;;;2.50;;
72117;SDS011;59992;47.490;8.736;2022-07-29T13:35:21;4.40;;;2.40;;
72117;SDS011;59992;47.490;8.736;2022-07-29T13:38:10;15.00;;;3.20;;
72117;SDS011;59992;47.490;8.736;2022-07-29T13:40:58;7.80;;;3.40;;
72117;SDS011;59992;47.490;8.736;2022-07-29T13:43:48;4.50;;;3.00;;
72117;SDS011;59992;47.490;8.736;2022-07-29T13:46:36;5.50;;;2.30;;
72117;SDS011;59992;47.490;8.736;2022-07-29T13:49:25;3.00;;;1.60;;
72117;SDS011;59992;47.490;8.736;2022-07-29T13:52:14;8.00;;;2.80;;
72117;SDS011;59992;47.490;8.736;2022-07-29T13:55:03;5.20;;;2.70;;
72117;SDS011;59992;47.490;8.736;2022-07-29T13:57:54;6.80;;;3.20;;
72117;SDS011;59992;47.490;8.736;2022-07-29T14:00:43;6.90;;;3.50;;
72117;SDS011;59992;47.490;8.736;2022-07-29T14:03:31;3.50;;;2.60;;
72117;SDS011;59992;47.490;8.736;2022-07-29T14:06:20;5.90;;;2.10;;
72117;SDS011;59992;47.490;8.736;2022-07-29T14:09:08;4.20;;;2.50;;
72117;SDS011;59992;47.490;8.736;2022-07-29T14:11:57;6.50;;;3.80;;
72117;SDS011;59992;47.490;8.736;2022-07-29T14:14:46;5.00;;;3.00;;
72117;SDS011;59992;47.490;8.736;2022-07-29T14:17:34;4.40;;;2.40;;
72117;SDS011;59992;47.490;8.736;2022-07-29T14:20:22;6.70;;;2.70;;
72117;SDS011;59992;47.490;8.736;2022-07-29T14:23:11;4.20;;;2.00;;
72117;SDS011;59992;47.490;8.736;2022-07-29T14:25:59;3.10;;;1.90;;
72117;SDS011;59992;47.490;8.736;2022-07-29T14:28:48;4.30;;;2.40;;
72117;SDS011;59992;47.490;8.736;2022-07-29T14:31:37;2.20;;;1.70;;
72117;SDS011;59992;47.490;8.736;2022-07-29T14:34:25;3.80;;;1.90;;
72117;SDS011;59992;47.490;8.736;2022-07-29T14:37:14;4.50;;;1.70;;
72117;SDS011;59992;47.490;8.736;2022-07-29T14:40:03;2.40;;;1.70;;
72117;SDS011;59992;47.490;8.736;2022-07-29T14:42:53;2.60;;;1.60;;
72117;SDS011;59992;47.490;8.736;2022-07-29T14:45:42;4.10;;;1.70;;
72117;SDS011;59992;47.490;8.736;2022-07-29T14:48:30;2.90;;;1.90;;
72117;SDS011;59992;47.490;8.736;2022-07-29T14:51:19;3.50;;;2.40;;
72117;SDS011;59992;47.490;8.736;2022-07-29T14:54:07;3.30;;;2.00;;
72117;SDS011;59992;47.490;8.736;2022-07-29T14:56:56;3.60;;;2.10;;
72117;SDS011;59992;47.490;8.736;2022-07-29T14:59:45;2.80;;;2.10;;
72117;SDS011;59992;47.490;8.736;2022-07-29T15:02:34;2.80;;;1.80;;
72117;SDS011;59992;47.490;8.736;2022-07-29T15:05:23;4.00;;;2.30;;
72117;SDS011;59992;47.490;8.736;2022-07-29T15:08:11;2.70;;;2.30;;
72117;SDS011;59992;47.490;8.736;2022-07-29T15:11:02;5.20;;;2.50;;
72117;SDS011;59992;47.490;8.736;2022-07-29T15:13:53;5.70;;;2.80;;
72117;SDS011;59992;47.490;8.736;2022-07-29T15:16:42;4.90;;;2.60;;
72117;SDS011;59992;47.490;8.736;2022-07-29T15:19:30;4.80;;;2.90;;
72117;SDS011;59992;47.490;8.736;2022-07-29T15:22:20;4.80;;;2.50;;
72117;SDS011;59992;47.490;8.736;2022-07-29T15:25:09;3.80;;;2.00;;
72117;SDS011;59992;47.490;8.736;2022-07-29T15:27:57;4.10;;;2.80;;
72117;SDS011;59992;47.490;8.736;2022-07-29T15:30:49;4.40;;;2.70;;
72117;SDS011;59992;47.490;8.736;2022-07-29T15:33:38;4.90;;;3.00;;
72117;SDS011;59992;47.490;8.736;2022-07-29T15:36:28;5.30;;;3.00;;
72117;SDS011;59992;47.490;8.736;2022-07-29T15:39:16;5.50;;;3.00;;
72117;SDS011;59992;47.490;8.736;2022-07-29T15:42:05;5.00;;;2.70;;
72117;SDS011;59992;47.490;8.736;2022-07-29T15:44:54;3.20;;;1.90;;
72117;SDS011;59992;47.490;8.736;2022-07-29T15:47:42;3.90;;;2.50;;
72117;SDS011;59992;47.490;8.736;2022-07-29T15:50:31;5.60;;;3.00;;
72117;SDS011;59992;47.490;8.736;2022-07-29T15:53:20;4.10;;;2.90;;
72117;SDS011;59992;47.490;8.736;2022-07-29T15:56:09;4.50;;;2.80;;
72117;SDS011;59992;47.490;8.736;2022-07-29T15:58:57;5.10;;;2.70;;
72117;SDS011;59992;47.490;8.736;2022-07-29T16:01:46;6.40;;;3.30;;
72117;SDS011;59992;47.490;8.736;2022-07-29T16:04:35;4.50;;;3.00;;
72117;SDS011;59992;47.490;8.736;2022-07-29T16:07:24;4.60;;;2.90;;
72117;SDS011;59992;47.490;8.736;2022-07-29T16:10:13;4.80;;;3.00;;
72117;SDS011;59992;47.490;8.736;2022-07-29T16:13:02;5.50;;;3.30;;
72117;SDS011;59992;47.490;8.736;2022-07-29T16:15:51;4.10;;;3.00;;
72117;SDS011;59992;47.490;8.736;2022-07-29T16:18:39;4.50;;;3.00;;
72117;SDS011;59992;47.490;8.736;2022-07-29T16:21:28;4.70;;;3.30;;
72117;SDS011;59992;47.490;8.736;2022-07-29T16:24:17;6.00;;;3.30;;
72117;SDS011;59992;47.490;8.736;2022-07-29T16:27:06;2.80;;;2.30;;
72117;SDS011;59992;47.490;8.736;2022-07-29T16:29:55;5.70;;;3.00;;
72117;SDS011;59992;47.490;8.736;2022-07-29T16:32:43;5.50;;;3.30;;
72117;SDS011;59992;47.490;8.736;2022-07-29T16:35:32;4.80;;;3.10;;
72117;SDS011;59992;47.490;8.736;2022-07-29T16:38:23;4.20;;;2.90;;
72117;SDS011;59992;47.490;8.736;2022-07-29T16:41:12;4.40;;;3.10;;
72117;SDS011;59992;47.490;8.736;2022-07-29T16:44:03;5.50;;;3.00;;
72117;SDS011;59992;47.490;8.736;2022-07-29T16:46:51;5.40;;;3.70;;
72117;SDS011;59992;47.490;8.736;2022-07-29T16:49:40;3.30;;;2.50;;
72117;SDS011;59992;47.490;8.736;2022-07-29T16:52:29;5.70;;;3.00;;
72117;SDS011;59992;47.490;8.736;2022-07-29T16:55:18;4.60;;;2.80;;
72117;SDS011;59992;47.490;8.736;2022-07-29T16:58:06;4.40;;;2.80;;
72117;SDS011;59992;47.490;8.736;2022-07-29T17:00:55;2.70;;;1.90;;
72117;SDS011;59992;47.490;8.736;2022-07-29T17:03:44;4.20;;;2.90;;
72117;SDS011;59992;47.490;8.736;2022-07-29T17:06:51;3.70;;;2.70;;
72117;SDS011;59992;47.490;8.736;2022-07-29T17:09:39;4.40;;;2.50;;
72117;SDS011;59992;47.490;8.736;2022-07-29T17:12:28;3.80;;;2.40;;
72117;SDS011;59992;47.490;8.736;2022-07-29T17:15:17;4.00;;;2.50;;
72117;SDS011;59992;47.490;8.736;2022-07-29T17:18:06;4.40;;;2.50;;